createdAt,value
2023-03-02T00:02:02.198Z,5.91
2023-03-02T00:04:38.733Z,5.87
2023-03-02T00:07:09.926Z,5.73
2023-03-02T00:09:37.610Z,5.62
2023-03-02T00:12:05.952Z,5.78
2023-03-02T00:14:32.792Z,5.68
2023-03-02T00:16:59.679Z,5.67
2023-03-02T00:19:26.544Z,5.64
2023-03-02T00:21:53.357Z,5.64
2023-03-02T00:24:20.355Z,5.67
2023-03-02T00:26:47.243Z,5.68
2023-03-02T00:29:14.241Z,5.67
2023-03-02T00:31:41.260Z,5.59
2023-03-02T00:34:08.093Z,5.66
2023-03-02T00:36:34.981Z,5.56
2023-03-02T00:39:01.879Z,5.48
2023-03-02T00:41:28.986Z,5.53
2023-03-02T00:43:56.538Z,5.53
2023-03-02T00:46:24.958Z,5.42
2023-03-02T00:48:52.641Z,5.50
2023-03-02T00:51:20.192Z,5.55
2023-03-02T00:53:47.109Z,5.43
2023-03-02T00:56:14.045Z,5.51
2023-03-02T00:58:40.857Z,5.46
2023-03-02T01:01:13.553Z,5.50
2023-03-02T01:03:40.542Z,5.53
2023-03-02T01:06:16.530Z,5.39
2023-03-02T01:08:43.668Z,5.41
2023-03-02T01:11:19.946Z,5.40
2023-03-02T01:13:48.103Z,5.23
2023-03-02T01:16:15.073Z,5.33
2023-03-02T01:18:41.944Z,5.19
2023-03-02T01:21:13.041Z,5.26
2023-03-02T01:23:39.891Z,5.21
2023-03-02T01:26:07.193Z,5.19
2023-03-02T01:28:34.049Z,5.12
2023-03-02T01:31:04.617Z,5.20
2023-03-02T01:33:32.298Z,4.99
2023-03-02T01:35:59.275Z,5.07
2023-03-02T01:38:26.586Z,5.12
2023-03-02T01:40:53.453Z,4.98
2023-03-02T01:43:20.251Z,4.94
2023-03-02T01:45:57.810Z,5.05
2023-03-02T01:48:47.280Z,5.05
2023-03-02T01:51:21.664Z,4.97
2023-03-02T01:53:55.548Z,5.01
2023-03-02T01:56:31.594Z,5.01
2023-03-02T01:59:05.411Z,4.88
2023-03-02T02:01:36.867Z,4.91
2023-03-02T02:04:04.265Z,4.70
2023-03-02T02:06:47.603Z,4.90
2023-03-02T02:09:18.060Z,4.90
2023-03-02T02:11:46.155Z,4.79
2023-03-02T02:14:13.416Z,4.73
2023-03-02T02:16:41.547Z,4.60
2023-03-02T02:19:41.480Z,4.80
2023-03-02T02:22:11.112Z,4.82
2023-03-02T02:24:50.164Z,4.63
2023-03-02T02:27:17.036Z,4.84
2023-03-02T02:29:48.651Z,4.68
2023-03-02T02:32:32.664Z,4.71
2023-03-02T02:35:20.180Z,4.79
2023-03-02T02:38:01.380Z,4.66
2023-03-02T02:40:54.024Z,4.70
2023-03-02T02:43:23.666Z,4.76
2023-03-02T02:45:55.622Z,4.74
2023-03-02T02:48:26.867Z,4.65
2023-03-02T02:51:00.317Z,4.64
2023-03-02T02:53:48.722Z,4.69
2023-03-02T02:56:17.357Z,4.65
2023-03-02T02:58:49.803Z,4.56
2023-03-02T03:01:19.511Z,4.51
2023-03-02T03:04:01.626Z,4.54
2023-03-02T03:06:52.980Z,4.62
2023-03-02T03:09:20.385Z,4.59
2023-03-02T03:11:52.463Z,4.56
2023-03-02T03:14:25.597Z,4.38
2023-03-02T03:16:52.738Z,4.37
2023-03-02T03:19:27.975Z,4.54
2023-03-02T03:22:00.585Z,4.49
2023-03-02T03:24:30.207Z,4.60
2023-03-02T03:26:58.049Z,4.54
2023-03-02T03:29:27.835Z,4.49
2023-03-02T03:31:57.060Z,4.64
2023-03-02T03:34:25.022Z,4.64
2023-03-02T03:36:52.061Z,4.63
2023-03-02T03:39:19.763Z,4.50
2023-03-02T03:41:46.732Z,4.57
2023-03-02T03:44:13.564Z,4.61
2023-03-02T03:46:40.448Z,4.59
2023-03-02T03:49:07.264Z,4.63
2023-03-02T03:51:35.409Z,4.64
2023-03-02T03:54:08.961Z,4.57
2023-03-02T03:56:40.885Z,4.57
2023-03-02T03:59:13.664Z,4.60
2023-03-02T04:01:47.763Z,4.33
2023-03-02T04:04:20.337Z,4.47
2023-03-02T04:06:47.248Z,4.48
2023-03-02T04:09:15.469Z,4.51
2023-03-02T04:11:45.054Z,4.38
2023-03-02T04:14:12.900Z,4.61
2023-03-02T04:16:40.159Z,4.53
2023-03-02T04:19:10.779Z,4.60
2023-03-02T04:21:45.091Z,4.61
2023-03-02T04:24:13.146Z,4.63
2023-03-02T04:26:42.492Z,4.61
2023-03-02T04:29:10.732Z,4.63
2023-03-02T04:31:37.940Z,4.56
2023-03-02T04:34:06.253Z,4.53
2023-03-02T04:36:36.212Z,4.59
2023-03-02T04:39:05.398Z,4.61
2023-03-02T04:41:32.451Z,4.50
2023-03-02T04:43:59.338Z,4.54
2023-03-02T04:46:28.228Z,4.58
2023-03-02T04:48:55.783Z,4.31
2023-03-02T04:51:28.764Z,4.51
2023-03-02T04:54:00.546Z,4.51
2023-03-02T04:56:28.118Z,4.43
2023-03-02T04:58:55.923Z,4.38
2023-03-02T05:01:23.344Z,4.55
2023-03-02T05:03:50.370Z,4.58
2023-03-02T05:06:17.577Z,4.54
2023-03-02T05:08:45.221Z,4.58
2023-03-02T05:11:22.029Z,4.49
2023-03-02T05:13:55.344Z,4.62
2023-03-02T05:16:24.014Z,4.56
2023-03-02T05:18:50.914Z,4.58
2023-03-02T05:21:19.360Z,4.38
2023-03-02T05:23:46.318Z,4.32
2023-03-02T05:26:14.240Z,4.29
2023-03-02T05:28:41.671Z,4.25
2023-03-02T05:31:09.179Z,4.31
2023-03-02T05:33:36.257Z,4.34
2023-03-02T05:36:03.300Z,4.32
2023-03-02T05:38:31.622Z,4.27
2023-03-02T05:40:58.648Z,4.31
2023-03-02T05:43:25.493Z,4.32
2023-03-02T05:45:52.290Z,4.45
2023-03-02T05:48:19.208Z,4.54
2023-03-02T05:50:46.127Z,4.52
2023-03-02T05:53:12.956Z,4.50
2023-03-02T05:55:39.805Z,4.62
2023-03-02T05:58:09.087Z,4.38
2023-03-02T06:00:36.182Z,4.48
2023-03-02T06:03:03.160Z,4.64
2023-03-02T06:05:30.050Z,4.67
2023-03-02T06:07:56.863Z,4.57
2023-03-02T06:10:24.515Z,4.61
2023-03-02T06:12:51.734Z,4.64
2023-03-02T06:15:19.213Z,4.67
2023-03-02T06:17:46.431Z,4.64
2023-03-02T06:20:14.389Z,4.60
2023-03-02T06:22:45.320Z,4.66
2023-03-02T06:25:21.978Z,4.54
2023-03-02T06:27:51.622Z,4.53
2023-03-02T06:30:22.757Z,4.67
2023-03-02T06:32:49.658Z,4.64
2023-03-02T06:35:16.844Z,4.56
2023-03-02T06:37:44.439Z,4.60
2023-03-02T06:40:13.733Z,4.83
2023-03-02T06:42:42.689Z,4.88
2023-03-02T06:45:11.423Z,4.88
2023-03-02T06:47:38.629Z,4.88
2023-03-02T06:50:06.492Z,4.85
2023-03-02T06:52:35.024Z,4.95
2023-03-02T06:55:02.789Z,4.83
2023-03-02T06:57:33.728Z,5.01
2023-03-02T07:00:06.763Z,5.03
2023-03-02T07:02:33.715Z,4.98
2023-03-02T07:05:00.546Z,4.98
2023-03-02T07:07:27.516Z,5.05
2023-03-02T07:09:54.374Z,5.04
2023-03-02T07:12:21.212Z,5.06
2023-03-02T07:14:48.113Z,5.13
2023-03-02T07:17:15.002Z,5.05
2023-03-02T07:19:41.854Z,5.09
2023-03-02T07:22:08.758Z,5.19
2023-03-02T07:24:35.680Z,5.13
2023-03-02T07:27:02.577Z,5.12
2023-03-02T07:29:29.457Z,5.11
2023-03-02T07:31:59.294Z,5.04
2023-03-02T07:34:27.319Z,5.16
2023-03-02T07:36:54.387Z,5.14
2023-03-02T07:39:21.479Z,5.14
2023-03-02T07:41:48.320Z,5.21
2023-03-02T07:44:15.570Z,5.19
2023-03-02T07:46:42.486Z,5.17
2023-03-02T07:49:09.384Z,5.23
2023-03-02T07:51:36.192Z,5.23
2023-03-02T07:54:04.910Z,5.04
2023-03-02T07:56:31.870Z,5.18
2023-03-02T07:58:58.836Z,5.17
2023-03-02T08:01:25.992Z,5.22
2023-03-02T08:03:53.280Z,5.29
2023-03-02T08:06:20.735Z,5.37
2023-03-02T08:08:47.977Z,5.38
2023-03-02T08:11:17.729Z,5.31
2023-03-02T08:13:45.663Z,5.24
2023-03-02T08:16:15.321Z,5.41
2023-03-02T08:18:43.310Z,5.40
2023-03-02T08:21:20.761Z,5.36
2023-03-02T08:23:48.317Z,5.36
2023-03-02T08:26:19.918Z,5.39
2023-03-02T08:28:47.470Z,5.32
2023-03-02T08:31:14.965Z,5.43
2023-03-02T08:33:41.838Z,5.30
2023-03-02T08:36:15.722Z,5.48
2023-03-02T08:38:42.963Z,5.40
2023-03-02T08:41:17.481Z,5.50
2023-03-02T08:43:44.308Z,5.56
2023-03-02T08:46:14.251Z,5.38
2023-03-02T08:48:41.212Z,5.49
2023-03-02T08:51:17.134Z,5.57
2023-03-02T08:53:47.221Z,5.51
2023-03-02T08:56:33.938Z,5.49
2023-03-02T08:59:05.366Z,5.65
2023-03-02T09:01:36.155Z,5.48
2023-03-02T09:04:06.267Z,5.66
2023-03-02T09:06:36.416Z,5.62
2023-03-02T09:09:03.762Z,5.49
2023-03-02T09:11:30.940Z,5.44
2023-03-02T09:13:57.869Z,5.47
2023-03-02T09:16:25.820Z,5.48
2023-03-02T09:18:54.411Z,5.45
2023-03-02T09:21:22.271Z,5.54
2023-03-02T09:23:49.154Z,5.56
2023-03-02T09:26:15.972Z,5.64
2023-03-02T09:28:42.768Z,5.52
2023-03-02T09:31:09.700Z,5.80
2023-03-02T09:33:36.864Z,5.75
2023-03-02T09:36:09.544Z,5.87
2023-03-02T09:38:36.459Z,5.90
2023-03-02T09:41:21.310Z,5.91
2023-03-02T09:44:00.253Z,5.86
2023-03-02T09:46:41.032Z,5.95
2023-03-02T09:49:29.657Z,6.00
2023-03-02T09:52:18.004Z,6.03
2023-03-02T09:54:45.034Z,6.01
2023-03-02T09:57:34.864Z,6.09
2023-03-02T10:00:24.733Z,6.15
2023-03-02T10:03:17.112Z,6.06
2023-03-02T10:05:49.697Z,6.16
2023-03-02T10:08:21.460Z,6.37
2023-03-02T10:11:46.373Z,6.49
2023-03-02T10:14:24.502Z,6.40
2023-03-02T10:16:58.406Z,6.32
2023-03-02T10:19:32.370Z,6.48
2023-03-02T10:22:26.909Z,6.52
2023-03-02T10:25:35.252Z,6.66
2023-03-02T10:28:19.997Z,6.56
2023-03-02T10:30:56.742Z,6.60
2023-03-02T10:33:24.311Z,6.60
2023-03-02T10:35:53.372Z,6.67
2023-03-02T10:38:23.852Z,6.55
2023-03-02T10:40:59.796Z,6.55
2023-03-02T10:43:37.074Z,6.67
2023-03-02T10:46:10.319Z,6.74
2023-03-02T10:49:01.077Z,6.73
2023-03-02T10:51:35.266Z,6.78
2023-03-02T10:54:13.926Z,6.73
2023-03-02T10:56:52.045Z,6.80
2023-03-02T10:59:45.401Z,6.62
2023-03-02T11:02:23.951Z,6.82
2023-03-02T11:05:21.624Z,6.77
2023-03-02T11:07:56.820Z,6.88
2023-03-02T11:10:34.296Z,6.84
2023-03-02T11:13:03.134Z,6.88
2023-03-02T11:15:37.220Z,6.82
2023-03-02T11:18:37.648Z,6.97
2023-03-02T11:21:35.756Z,7.05
2023-03-02T11:24:11.360Z,7.17
2023-03-02T11:26:52.803Z,7.26
2023-03-02T11:29:38.830Z,7.27
2023-03-02T11:32:08.452Z,7.32
2023-03-02T11:35:05.564Z,7.32
2023-03-02T11:37:54.765Z,7.55
2023-03-02T11:40:52.314Z,7.70
2023-03-02T11:43:19.304Z,7.72
2023-03-02T11:46:06.679Z,7.73
2023-03-02T11:48:48.914Z,7.70
2023-03-02T11:51:24.309Z,7.65
2023-03-02T11:54:33.942Z,7.95
2023-03-02T11:57:01.672Z,7.85
2023-03-02T11:59:29.197Z,8.12
2023-03-02T12:01:57.477Z,8.07
2023-03-02T12:04:32.341Z,8.11
2023-03-02T12:07:01.976Z,8.23
2023-03-02T12:09:37.361Z,8.26
2023-03-02T12:12:22.314Z,8.18
2023-03-02T12:14:49.266Z,8.19
2023-03-02T12:17:32.541Z,8.08
2023-03-02T12:20:23.340Z,8.04
2023-03-02T12:22:50.750Z,8.04
2023-03-02T12:25:20.484Z,8.13
2023-03-02T12:27:51.219Z,8.22
2023-03-02T12:30:24.647Z,8.23
2023-03-02T12:33:22.487Z,8.24
2023-03-02T12:35:51.888Z,8.16
2023-03-02T12:38:33.952Z,8.16
2023-03-02T12:41:38.933Z,8.34
2023-03-02T12:44:56.335Z,8.85
2023-03-02T12:47:29.759Z,8.69
2023-03-02T12:50:06.097Z,8.45
2023-03-02T12:52:36.579Z,8.74
2023-03-02T12:55:19.144Z,8.68
2023-03-02T12:57:52.081Z,8.86
2023-03-02T13:00:23.473Z,8.88
2023-03-02T13:02:53.494Z,8.74
2023-03-02T13:05:24.744Z,8.73
2023-03-02T13:08:05.156Z,8.73
2023-03-02T13:10:54.069Z,8.79
2023-03-02T13:13:34.234Z,8.75
2023-03-02T13:16:05.140Z,8.90
2023-03-02T13:18:35.498Z,8.66
2023-03-02T13:21:04.430Z,8.64
2023-03-02T13:23:33.586Z,8.90
2023-03-02T13:26:04.396Z,9.01
2023-03-02T13:28:37.612Z,8.89
2023-03-02T13:31:22.209Z,9.16
2023-03-02T13:33:50.875Z,9.28
2023-03-02T13:36:29.284Z,9.19
2023-03-02T13:38:59.387Z,9.35
2023-03-02T13:41:34.526Z,9.41
2023-03-02T13:44:21.366Z,9.41
2023-03-02T13:46:48.290Z,9.21
2023-03-02T13:49:27.823Z,9.51
2023-03-02T13:52:07.080Z,9.56
2023-03-02T13:54:37.130Z,9.49
2023-03-02T13:57:06.417Z,9.43
2023-03-02T13:59:36.426Z,9.57
2023-03-02T14:02:03.491Z,9.46
2023-03-02T14:04:30.422Z,9.66
2023-03-02T14:06:57.280Z,10.03
2023-03-02T14:09:24.855Z,10.13
2023-03-02T14:11:55.403Z,10.01
2023-03-02T14:14:25.464Z,10.01
2023-03-02T14:16:52.475Z,9.93
2023-03-02T14:19:20.153Z,10.23
2023-03-02T14:21:47.972Z,10.41
2023-03-02T14:24:14.883Z,10.50
2023-03-02T14:26:44.989Z,10.38
2023-03-02T14:29:31.605Z,10.35
2023-03-02T14:32:06.486Z,10.32
2023-03-02T14:34:36.780Z,10.42
2023-03-02T14:37:07.908Z,10.36
2023-03-02T14:39:38.593Z,10.42
2023-03-02T14:42:12.352Z,10.52
2023-03-02T14:44:40.061Z,10.60
2023-03-02T14:47:07.394Z,10.50
2023-03-02T14:49:34.277Z,10.35
2023-03-02T14:52:03.036Z,10.43
2023-03-02T14:54:43.868Z,10.46
2023-03-02T14:57:20.674Z,10.40
2023-03-02T14:59:48.716Z,10.34
2023-03-02T15:02:25.299Z,10.21
2023-03-02T15:04:56.533Z,10.24
2023-03-02T15:07:26.117Z,10.30
2023-03-02T15:09:54.323Z,10.11
2023-03-02T15:12:21.222Z,10.32
2023-03-02T15:14:48.039Z,10.25
2023-03-02T15:17:15.022Z,10.34
2023-03-02T15:19:41.875Z,10.41
2023-03-02T15:22:08.860Z,10.46
2023-03-02T15:24:35.668Z,10.57
2023-03-02T15:27:02.471Z,10.42
2023-03-02T15:29:29.328Z,10.31
2023-03-02T15:31:59.355Z,10.20
2023-03-02T15:34:26.286Z,10.22
2023-03-02T15:36:53.093Z,10.05
2023-03-02T15:39:20.003Z,10.05
2023-03-02T15:41:47.021Z,10.18
2023-03-02T15:44:22.117Z,10.19
2023-03-02T15:46:58.104Z,10.28
2023-03-02T15:49:28.389Z,10.36
2023-03-02T15:51:59.463Z,10.25
2023-03-02T15:54:27.360Z,10.31
2023-03-02T15:56:54.630Z,10.32
2023-03-02T15:59:25.106Z,10.31
2023-03-02T16:01:52.743Z,10.31
2023-03-02T16:04:19.974Z,10.12
2023-03-02T16:06:46.881Z,10.21
2023-03-02T16:09:13.751Z,10.19
2023-03-02T16:11:40.750Z,10.22
2023-03-02T16:14:07.619Z,10.16
2023-03-02T16:16:34.543Z,10.20
2023-03-02T16:19:01.705Z,10.33
2023-03-02T16:21:29.167Z,10.32
2023-03-02T16:24:03.237Z,10.50
2023-03-02T16:26:36.788Z,10.47
2023-03-02T16:29:05.713Z,10.36
2023-03-02T16:31:34.290Z,10.21
2023-03-02T16:34:06.917Z,10.20
2023-03-02T16:36:38.457Z,10.28
2023-03-02T16:39:07.451Z,10.20
2023-03-02T16:41:34.966Z,10.06
2023-03-02T16:44:02.091Z,10.09
2023-03-02T16:46:36.130Z,9.95
2023-03-02T16:49:04.452Z,10.03
2023-03-02T16:51:31.380Z,9.67
2023-03-02T16:53:58.674Z,9.98
2023-03-02T16:56:25.629Z,10.03
2023-03-02T16:58:52.403Z,9.99
2023-03-02T17:01:22.346Z,10.09
2023-03-02T17:03:50.640Z,9.95
2023-03-02T17:06:21.060Z,9.98
2023-03-02T17:08:48.060Z,9.77
2023-03-02T17:11:15.335Z,9.96
2023-03-02T17:13:42.220Z,9.90
2023-03-02T17:16:09.189Z,9.73
2023-03-02T17:18:36.131Z,9.73
2023-03-02T17:21:04.877Z,9.52
2023-03-02T17:23:31.899Z,9.62
2023-03-02T17:25:58.743Z,9.58
2023-03-02T17:28:25.768Z,9.41
2023-03-02T17:30:52.669Z,9.53
2023-03-02T17:33:19.514Z,9.48
2023-03-02T17:35:46.682Z,9.43
2023-03-02T17:38:14.980Z,9.41
2023-03-02T17:40:43.113Z,9.48
2023-03-02T17:43:10.454Z,9.48
2023-03-02T17:45:37.457Z,9.57
2023-03-02T17:48:04.863Z,9.48
2023-03-02T17:50:32.450Z,9.58
2023-03-02T17:53:00.043Z,9.42
2023-03-02T17:55:27.561Z,9.36
2023-03-02T17:57:54.510Z,9.30
2023-03-02T18:00:22.836Z,9.18
2023-03-02T18:02:50.315Z,9.13
2023-03-02T18:05:17.569Z,9.02
2023-03-02T18:07:44.432Z,9.12
2023-03-02T18:10:12.446Z,9.12
2023-03-02T18:12:39.399Z,9.13
2023-03-02T18:15:07.707Z,8.77
2023-03-02T18:17:34.585Z,8.76
2023-03-02T18:20:01.417Z,8.89
2023-03-02T18:22:28.343Z,8.74
2023-03-02T18:24:55.151Z,8.76
2023-03-02T18:27:22.063Z,8.62
2023-03-02T18:29:49.411Z,8.71
2023-03-02T18:32:16.337Z,8.77
2023-03-02T18:34:43.327Z,8.73
2023-03-02T18:37:10.249Z,8.74
2023-03-02T18:39:40.221Z,8.78
2023-03-02T18:42:07.820Z,8.70
2023-03-02T18:44:35.324Z,8.71
2023-03-02T18:47:02.531Z,8.48
2023-03-02T18:49:29.513Z,8.41
2023-03-02T18:51:56.814Z,8.51
2023-03-02T18:54:24.326Z,8.43
2023-03-02T18:56:51.466Z,8.24
2023-03-02T18:59:18.872Z,8.40
2023-03-02T19:01:46.213Z,8.48
2023-03-02T19:04:14.364Z,8.15
2023-03-02T19:06:42.815Z,8.26
2023-03-02T19:09:10.306Z,8.42
2023-03-02T19:11:37.560Z,7.97
2023-03-02T19:14:04.605Z,8.13
2023-03-02T19:16:31.849Z,7.97
2023-03-02T19:18:59.770Z,7.90
2023-03-02T19:21:26.779Z,7.94
2023-03-02T19:23:53.726Z,7.82
2023-03-02T19:26:20.629Z,7.59
2023-03-02T19:28:47.511Z,7.55
2023-03-02T19:31:14.741Z,7.50
2023-03-02T19:33:42.613Z,7.74
2023-03-02T19:36:10.021Z,7.78
2023-03-02T19:38:40.599Z,7.50
2023-03-02T19:41:10.553Z,7.86
2023-03-02T19:43:37.669Z,7.92
2023-03-02T19:46:05.243Z,7.83
2023-03-02T19:48:33.944Z,7.90
2023-03-02T19:51:00.901Z,7.80
2023-03-02T19:53:27.703Z,7.69
2023-03-02T19:56:08.261Z,7.74
2023-03-02T19:58:36.086Z,7.73
2023-03-02T20:01:04.147Z,7.58
2023-03-02T20:03:31.096Z,7.71
2023-03-02T20:05:58.945Z,7.63
2023-03-02T20:08:25.945Z,7.67
2023-03-02T20:10:52.858Z,7.72
2023-03-02T20:13:19.699Z,7.70
2023-03-02T20:15:47.755Z,7.73
2023-03-02T20:18:20.049Z,7.78
2023-03-02T20:20:48.375Z,7.67
2023-03-02T20:23:16.176Z,7.50
2023-03-02T20:25:43.150Z,7.23
2023-03-02T20:28:13.748Z,7.37
2023-03-02T20:30:51.379Z,7.47
2023-03-02T20:33:22.239Z,7.41
2023-03-02T20:35:49.722Z,7.47
2023-03-02T20:38:24.496Z,7.51
2023-03-02T20:40:51.532Z,7.40
2023-03-02T20:43:19.002Z,7.20
2023-03-02T20:45:45.889Z,7.44
2023-03-02T20:48:13.610Z,7.38
2023-03-02T20:50:40.686Z,7.47
2023-03-02T20:53:08.566Z,7.44
2023-03-02T20:55:35.799Z,7.47
2023-03-02T20:58:05.285Z,7.24
2023-03-02T21:00:34.315Z,7.42
2023-03-02T21:03:01.339Z,7.33
2023-03-02T21:05:30.088Z,7.23
2023-03-02T21:07:57.800Z,7.10
2023-03-02T21:10:30.354Z,7.19
2023-03-02T21:12:57.349Z,7.13
2023-03-02T21:15:27.167Z,7.13
2023-03-02T21:17:56.009Z,6.98
2023-03-02T21:20:26.314Z,7.08
2023-03-02T21:22:53.263Z,6.98
2023-03-02T21:25:20.600Z,6.82
2023-03-02T21:27:47.412Z,6.81
2023-03-02T21:30:22.403Z,6.83
2023-03-02T21:32:49.650Z,6.76
2023-03-02T21:35:23.385Z,6.71
2023-03-02T21:37:54.621Z,6.73
2023-03-02T21:40:31.364Z,6.71
2023-03-02T21:43:00.309Z,6.71
2023-03-02T21:45:28.847Z,6.65
2023-03-02T21:47:55.722Z,6.62
2023-03-02T21:50:26.993Z,6.43
2023-03-02T21:52:55.463Z,6.54
2023-03-02T21:55:22.517Z,6.40
2023-03-02T21:57:49.385Z,6.49
2023-03-02T22:00:35.797Z,6.35
2023-03-02T22:03:03.385Z,6.32
2023-03-02T22:05:31.010Z,6.32
2023-03-02T22:07:58.117Z,6.19
2023-03-02T22:10:34.911Z,6.25
2023-03-02T22:13:33.360Z,6.07
2023-03-02T22:16:14.380Z,5.90
2023-03-02T22:18:43.194Z,5.90
2023-03-02T22:21:32.026Z,5.75
2023-03-02T22:24:09.616Z,5.89
2023-03-02T22:26:52.764Z,5.76
2023-03-02T22:29:49.479Z,5.81
2023-03-02T22:32:22.616Z,5.84
2023-03-02T22:34:57.301Z,5.80
2023-03-02T22:37:30.726Z,5.61
2023-03-02T22:40:02.017Z,5.73
2023-03-02T22:42:30.803Z,5.67
2023-03-02T22:45:18.844Z,5.68
2023-03-02T22:47:51.307Z,5.74
2023-03-02T22:50:29.666Z,5.66
2023-03-02T22:52:58.501Z,5.66
2023-03-02T22:55:31.153Z,5.65
2023-03-02T22:57:57.978Z,5.68
2023-03-02T23:00:40.184Z,5.48
2023-03-02T23:03:24.905Z,5.52
2023-03-02T23:05:53.051Z,5.63
2023-03-02T23:08:29.508Z,5.65
2023-03-02T23:10:58.921Z,5.61
2023-03-02T23:13:38.252Z,5.63
2023-03-02T23:16:26.948Z,5.61
2023-03-02T23:18:59.307Z,5.43
2023-03-02T23:21:41.688Z,5.52
2023-03-02T23:24:08.886Z,5.67
2023-03-02T23:26:36.237Z,5.61
2023-03-02T23:29:04.218Z,5.68
2023-03-02T23:31:31.287Z,5.72
2023-03-02T23:33:58.224Z,5.66
2023-03-02T23:36:26.164Z,5.64
2023-03-02T23:38:53.238Z,5.75
2023-03-02T23:41:20.112Z,5.66
2023-03-02T23:43:47.001Z,5.64
2023-03-02T23:46:14.383Z,5.76
2023-03-02T23:48:42.759Z,5.74
2023-03-02T23:51:10.421Z,5.71
2023-03-02T23:53:37.316Z,5.68
2023-03-02T23:56:04.288Z,5.72
2023-03-02T23:58:31.178Z,5.66
